Terminal Aerodrome Forecast
Issued by NWS

Home | Current Version | Previous Version | Text Only | Print | Product List | Glossary On
Versions: 1 2 3 4 5 6 7 8 9 10 11 12 13
000
FTUS43 KLSX 311700
TAFUIN
TAF
KUIN 311720Z 3118/0118 34019G28KT P6SM FEW040
     FM010000 34010KT P6SM SKC
     FM011500 03006KT P6SM SKC=

USA.gov is the U.S. government's official web portal to all federal, state and local government web resources and services.